Terminal Aerodrome Forecast
Issued by NWS

Home | Current Version | Previous Version | Text Only | Print | Product List | Glossary On
Versions: 1 2 3 4 5 6 7 8 9 10 11 12 13
000
FTUS41 KBTV 292325
TAFMSS
TAF
KMSS 292325Z 3000/3024 15009KT 4SM -SN BR SCT025 OVC040
      TEMPO 3000/3004 1SM -SN BR BKN025
     FM300400 15008KT 3SM -SHSN BR BKN025 OVC040
      TEMPO 3004/3008 1SM -SN BR
     FM301200 32013G19KT P6SM VCSH OVC012=

USA.gov is the U.S. government's official web portal to all federal, state and local government web resources and services.